Aviation Digital Data Service (ADDS)

Output produced by METARs form (2349 UTC 18 August 2019)
found at http://www.aviationweather.gov/metar/data/
 
METAR text: GMAD 182330Z 27004KT CAVOK 21/15 Q1013 NOSIG
Conditions at: GMAD (AL MASSIRA MC , MA) observed 2330 UTC 18 August 2019
Temperature: 21.0°C (70°F)
Dewpoint: 15.0°C (59°F) [RH = 69%]
Pressure (altimeter): 29.91 inches Hg (1013.0 mb)
Winds: from the W (270 degrees) at 5 MPH (4 knots; 2.1 m/s)
Visibility: 6 or more miles (10+ km)
Ceiling: ceiling and visibility are OK
Clouds: unknown
Weather: no significant weather observed at this time

METAR text: GMAD 182300Z 25004KT CAVOK 22/15 Q1013 NOSIG
Conditions at: GMAD (AL MASSIRA MC , MA) observed 2300 UTC 18 August 2019
Temperature: 22.0°C (72°F)
Dewpoint: 15.0°C (59°F) [RH = 65%]
Pressure (altimeter): 29.91 inches Hg (1013.0 mb)
Winds: from the WSW (250 degrees) at 5 MPH (4 knots; 2.1 m/s)
Visibility: 6 or more miles (10+ km)
Ceiling: ceiling and visibility are OK
Clouds: unknown
Weather: no significant weather observed at this time

METAR text: GMAD 182230Z 24006KT CAVOK 23/15 Q1012 NOSIG
Conditions at: GMAD (AL MASSIRA MC , MA) observed 2230 UTC 18 August 2019
Temperature: 23.0°C (73°F)
Dewpoint: 15.0°C (59°F) [RH = 61%]
Pressure (altimeter): 29.88 inches Hg (1012.0 mb)
Winds: from the WSW (240 degrees) at 7 MPH (6 knots; 3.1 m/s)
Visibility: 6 or more miles (10+ km)
Ceiling: ceiling and visibility are OK
Clouds: unknown
Weather: no significant weather observed at this time

METAR text: GMAD 182200Z 22011KT CAVOK 23/16 Q1012 NOSIG
Conditions at: GMAD (AL MASSIRA MC , MA) observed 2200 UTC 18 August 2019
Temperature: 23.0°C (73°F)
Dewpoint: 16.0°C (61°F) [RH = 65%]
Pressure (altimeter): 29.88 inches Hg (1012.0 mb)
Winds: from the SW (220 degrees) at 13 MPH (11 knots; 5.7 m/s)
Visibility: 6 or more miles (10+ km)
Ceiling: ceiling and visibility are OK
Clouds: unknown
Weather: no significant weather observed at this time

METAR text: GMAD 182100Z 21011KT CAVOK 25/15 Q1011 NOSIG
Conditions at: GMAD (AL MASSIRA MC , MA) observed 2100 UTC 18 August 2019
Temperature: 25.0°C (77°F)
Dewpoint: 15.0°C (59°F) [RH = 54%]
Pressure (altimeter): 29.85 inches Hg (1011.0 mb)
Winds: from the SSW (210 degrees) at 13 MPH (11 knots; 5.7 m/s)
Visibility: 6 or more miles (10+ km)
Ceiling: ceiling and visibility are OK
Clouds: unknown
Weather: no significant weather observed at this time

METAR text: GMAD 182030Z 22009KT CAVOK 26/14 Q1011 NOSIG
Conditions at: GMAD (AL MASSIRA MC , MA) observed 2030 UTC 18 August 2019
Temperature: 26.0°C (79°F)
Dewpoint: 14.0°C (57°F) [RH = 48%]
Pressure (altimeter): 29.85 inches Hg (1011.0 mb)
Winds: from the SW (220 degrees) at 10 MPH (9 knots; 4.6 m/s)
Visibility: 6 or more miles (10+ km)
Ceiling: ceiling and visibility are OK
Clouds: unknown
Weather: no significant weather observed at this time

METAR text: GMAD 182000Z 23010KT CAVOK 28/13 Q1010 NOSIG
Conditions at: GMAD (AL MASSIRA MC , MA) observed 2000 UTC 18 August 2019
Temperature: 28.0°C (82°F)
Dewpoint: 13.0°C (55°F) [RH = 40%]
Pressure (altimeter): 29.82 inches Hg (1010.0 mb)
Winds: from the SW (230 degrees) at 12 MPH (10 knots; 5.1 m/s)
Visibility: 6 or more miles (10+ km)
Ceiling: ceiling and visibility are OK
Clouds: unknown
Weather: no significant weather observed at this time

METAR text: GMAD 181930Z 21012KT CAVOK 30/12 Q1010 NOSIG
Conditions at: GMAD (AL MASSIRA MC , MA) observed 1930 UTC 18 August 2019
Temperature: 30.0°C (86°F)
Dewpoint: 12.0°C (54°F) [RH = 33%]
Pressure (altimeter): 29.82 inches Hg (1010.0 mb)
Winds: from the SSW (210 degrees) at 14 MPH (12 knots; 6.2 m/s)
Visibility: 6 or more miles (10+ km)
Ceiling: ceiling and visibility are OK
Clouds: unknown
Weather: no significant weather observed at this time

METAR text: GMAD 181900Z 22012KT CAVOK 33/10 Q1010 NOSIG
Conditions at: GMAD (AL MASSIRA MC , MA) observed 1900 UTC 18 August 2019
Temperature: 33.0°C (91°F)
Dewpoint: 10.0°C (50°F) [RH = 24%]
Pressure (altimeter): 29.82 inches Hg (1010.0 mb)
Winds: from the SW (220 degrees) at 14 MPH (12 knots; 6.2 m/s)
Visibility: 6 or more miles (10+ km)
Ceiling: ceiling and visibility are OK
Clouds: unknown
Weather: no significant weather observed at this time

METAR text: GMAD 181830Z 25012KT CAVOK 35/08 Q1009 NOSIG
Conditions at: GMAD (AL MASSIRA MC , MA) observed 1830 UTC 18 August 2019
Temperature: 35.0°C (95°F)
Dewpoint: 8.0°C (46°F) [RH = 19%]
Pressure (altimeter): 29.79 inches Hg (1009.0 mb)
Winds: from the WSW (250 degrees) at 14 MPH (12 knots; 6.2 m/s)
Visibility: 6 or more miles (10+ km)
Ceiling: ceiling and visibility are OK
Clouds: unknown
Weather: no significant weather observed at this time

METAR text: GMAD 181800Z 27014KT CAVOK 37/08 Q1009 NOSIG
Conditions at: GMAD (AL MASSIRA MC , MA) observed 1800 UTC 18 August 2019
Temperature: 37.0°C (99°F)
Dewpoint: 8.0°C (46°F) [RH = 17%]
Pressure (altimeter): 29.79 inches Hg (1009.0 mb)
Winds: from the W (270 degrees) at 16 MPH (14 knots; 7.2 m/s)
Visibility: 6 or more miles (10+ km)
Ceiling: ceiling and visibility are OK
Clouds: unknown
Weather: no significant weather observed at this time

METAR text: GMAD 181730Z 27015KT CAVOK 38/07 Q1009 NOSIG
Conditions at: GMAD (AL MASSIRA MC , MA) observed 1730 UTC 18 August 2019
Temperature: 38.0°C (100°F)
Dewpoint: 7.0°C (45°F) [RH = 15%]
Pressure (altimeter): 29.79 inches Hg (1009.0 mb)
Winds: from the W (270 degrees) at 17 MPH (15 knots; 7.7 m/s)
Visibility: 6 or more miles (10+ km)
Ceiling: ceiling and visibility are OK
Clouds: unknown
Weather: no significant weather observed at this time

METAR text: GMAD 181700Z 27016KT CAVOK 39/06 Q1010 NOSIG
Conditions at: GMAD (AL MASSIRA MC , MA) observed 1700 UTC 18 August 2019
Temperature: 39.0°C (102°F)
Dewpoint: 6.0°C (43°F) [RH = 13%]
Pressure (altimeter): 29.82 inches Hg (1010.0 mb)
Winds: from the W (270 degrees) at 18 MPH (16 knots; 8.2 m/s)
Visibility: 6 or more miles (10+ km)
Ceiling: ceiling and visibility are OK
Clouds: unknown
Weather: no significant weather observed at this time

METAR text: GMAD 181630Z 26014KT CAVOK 39/09 Q1010 NOSIG
Conditions at: GMAD (AL MASSIRA MC , MA) observed 1630 UTC 18 August 2019
Temperature: 39.0°C (102°F)
Dewpoint: 9.0°C (48°F) [RH = 16%]
Pressure (altimeter): 29.82 inches Hg (1010.0 mb)
Winds: from the W (260 degrees) at 16 MPH (14 knots; 7.2 m/s)
Visibility: 6 or more miles (10+ km)
Ceiling: ceiling and visibility are OK
Clouds: unknown
Weather: no significant weather observed at this time

METAR text: GMAD 181600Z 27015KT CAVOK 39/09 Q1010 NOSIG
Conditions at: GMAD (AL MASSIRA MC , MA) observed 1600 UTC 18 August 2019
Temperature: 39.0°C (102°F)
Dewpoint: 9.0°C (48°F) [RH = 16%]
Pressure (altimeter): 29.82 inches Hg (1010.0 mb)
Winds: from the W (270 degrees) at 17 MPH (15 knots; 7.7 m/s)
Visibility: 6 or more miles (10+ km)
Ceiling: ceiling and visibility are OK
Clouds: unknown
Weather: no significant weather observed at this time

METAR text: GMAD 181500Z 25011KT CAVOK 37/12 Q1010 NOSIG
Conditions at: GMAD (AL MASSIRA MC , MA) observed 1500 UTC 18 August 2019
Temperature: 37.0°C (99°F)
Dewpoint: 12.0°C (54°F) [RH = 22%]
Pressure (altimeter): 29.82 inches Hg (1010.0 mb)
Winds: from the WSW (250 degrees) at 13 MPH (11 knots; 5.7 m/s)
Visibility: 6 or more miles (10+ km)
Ceiling: ceiling and visibility are OK
Clouds: unknown
Weather: no significant weather observed at this time

METAR text: GMAD 181430Z 26012KT CAVOK 36/11 Q1011 NOSIG
Conditions at: GMAD (AL MASSIRA MC , MA) observed 1430 UTC 18 August 2019
Temperature: 36.0°C (97°F)
Dewpoint: 11.0°C (52°F) [RH = 22%]
Pressure (altimeter): 29.85 inches Hg (1011.0 mb)
Winds: from the W (260 degrees) at 14 MPH (12 knots; 6.2 m/s)
Visibility: 6 or more miles (10+ km)
Ceiling: ceiling and visibility are OK
Clouds: unknown
Weather: no significant weather observed at this time

METAR text: GMAD 181400Z 25013KT CAVOK 37/13 Q1011 NOSIG
Conditions at: GMAD (AL MASSIRA MC , MA) observed 1400 UTC 18 August 2019
Temperature: 37.0°C (99°F)
Dewpoint: 13.0°C (55°F) [RH = 24%]
Pressure (altimeter): 29.85 inches Hg (1011.0 mb)
Winds: from the WSW (250 degrees) at 15 MPH (13 knots; 6.7 m/s)
Visibility: 6 or more miles (10+ km)
Ceiling: ceiling and visibility are OK
Clouds: unknown
Weather: no significant weather observed at this time

METAR text: GMAD 181330Z 25013KT CAVOK 37/12 Q1011 NOSIG
Conditions at: GMAD (AL MASSIRA MC , MA) observed 1330 UTC 18 August 2019
Temperature: 37.0°C (99°F)
Dewpoint: 12.0°C (54°F) [RH = 22%]
Pressure (altimeter): 29.85 inches Hg (1011.0 mb)
Winds: from the WSW (250 degrees) at 15 MPH (13 knots; 6.7 m/s)
Visibility: 6 or more miles (10+ km)
Ceiling: ceiling and visibility are OK
Clouds: unknown
Weather: no significant weather observed at this time

METAR text: GMAD 181300Z 26012KT CAVOK 37/14 Q1011 NOSIG
Conditions at: GMAD (AL MASSIRA MC , MA) observed 1300 UTC 18 August 2019
Temperature: 37.0°C (99°F)
Dewpoint: 14.0°C (57°F) [RH = 25%]
Pressure (altimeter): 29.85 inches Hg (1011.0 mb)
Winds: from the W (260 degrees) at 14 MPH (12 knots; 6.2 m/s)
Visibility: 6 or more miles (10+ km)
Ceiling: ceiling and visibility are OK
Clouds: unknown
Weather: no significant weather observed at this time

METAR text: GMAD 181230Z 27011KT CAVOK 35/15 Q1011 NOSIG
Conditions at: GMAD (AL MASSIRA MC , MA) observed 1230 UTC 18 August 2019
Temperature: 35.0°C (95°F)
Dewpoint: 15.0°C (59°F) [RH = 30%]
Pressure (altimeter): 29.85 inches Hg (1011.0 mb)
Winds: from the W (270 degrees) at 13 MPH (11 knots; 5.7 m/s)
Visibility: 6 or more miles (10+ km)
Ceiling: ceiling and visibility are OK
Clouds: unknown
Weather: no significant weather observed at this time

METAR text: GMAD 181200Z 27011KT 240V300 CAVOK 33/16 Q1012 NOSIG
Conditions at: GMAD (AL MASSIRA MC , MA) observed 1200 UTC 18 August 2019
Temperature: 33.0°C (91°F)
Dewpoint: 16.0°C (61°F) [RH = 36%]
Pressure (altimeter): 29.88 inches Hg (1012.0 mb)
Winds: from the W (270 degrees) at 13 MPH (11 knots; 5.7 m/s)
Visibility: 6 or more miles (10+ km)
Ceiling: ceiling and visibility are OK
Clouds: unknown
Weather: no significant weather observed at this time

METAR text: GMAD 181130Z 28011KT CAVOK 33/17 Q1012 NOSIG
Conditions at: GMAD (AL MASSIRA MC , MA) observed 1130 UTC 18 August 2019
Temperature: 33.0°C (91°F)
Dewpoint: 17.0°C (63°F) [RH = 39%]
Pressure (altimeter): 29.88 inches Hg (1012.0 mb)
Winds: from the W (280 degrees) at 13 MPH (11 knots; 5.7 m/s)
Visibility: 6 or more miles (10+ km)
Ceiling: ceiling and visibility are OK
Clouds: unknown
Weather: no significant weather observed at this time

METAR text: GMAD 181100Z 27011KT CAVOK 34/17 Q1012 NOSIG
Conditions at: GMAD (AL MASSIRA MC , MA) observed 1100 UTC 18 August 2019
Temperature: 34.0°C (93°F)
Dewpoint: 17.0°C (63°F) [RH = 36%]
Pressure (altimeter): 29.88 inches Hg (1012.0 mb)
Winds: from the W (270 degrees) at 13 MPH (11 knots; 5.7 m/s)
Visibility: 6 or more miles (10+ km)
Ceiling: ceiling and visibility are OK
Clouds: unknown
Weather: no significant weather observed at this time

METAR text: GMAD 181030Z 26005KT 230V290 CAVOK 35/13 Q1012 NOSIG
Conditions at: GMAD (AL MASSIRA MC , MA) observed 1030 UTC 18 August 2019
Temperature: 35.0°C (95°F)
Dewpoint: 13.0°C (55°F) [RH = 27%]
Pressure (altimeter): 29.88 inches Hg (1012.0 mb)
Winds: from the W (260 degrees) at 6 MPH (5 knots; 2.6 m/s)
Visibility: 6 or more miles (10+ km)
Ceiling: ceiling and visibility are OK
Clouds: unknown
Weather: no significant weather observed at this time

METAR text: GMAD 181000Z 29004KT 260V000 CAVOK 33/15 Q1012 NOSIG
Conditions at: GMAD (AL MASSIRA MC , MA) observed 1000 UTC 18 August 2019
Temperature: 33.0°C (91°F)
Dewpoint: 15.0°C (59°F) [RH = 34%]
Pressure (altimeter): 29.88 inches Hg (1012.0 mb)
Winds: from the WNW (290 degrees) at 5 MPH (4 knots; 2.1 m/s)
Visibility: 6 or more miles (10+ km)
Ceiling: ceiling and visibility are OK
Clouds: unknown
Weather: no significant weather observed at this time

METAR text: GMAD 180930Z 33003KT 270V000 CAVOK 31/14 Q1012 NOSIG
Conditions at: GMAD (AL MASSIRA MC , MA) observed 0930 UTC 18 August 2019
Temperature: 31.0°C (88°F)
Dewpoint: 14.0°C (57°F) [RH = 36%]
Pressure (altimeter): 29.88 inches Hg (1012.0 mb)
Winds: from the NNW (330 degrees) at 3 MPH (3 knots; 1.5 m/s)
Visibility: 6 or more miles (10+ km)
Ceiling: ceiling and visibility are OK
Clouds: unknown
Weather: no significant weather observed at this time

METAR text: GMAD 180900Z 01004KT 350V050 CAVOK 29/13 Q1011 NOSIG
Conditions at: GMAD (AL MASSIRA MC , MA) observed 0900 UTC 18 August 2019
Temperature: 29.0°C (84°F)
Dewpoint: 13.0°C (55°F) [RH = 37%]
Pressure (altimeter): 29.85 inches Hg (1011.0 mb)
Winds: from the N (10 degrees) at 5 MPH (4 knots; 2.1 m/s)
Visibility: 6 or more miles (10+ km)
Ceiling: ceiling and visibility are OK
Clouds: unknown
Weather: no significant weather observed at this time

METAR text: GMAD 180830Z 07004KT CAVOK 25/15 Q1011 NOSIG
Conditions at: GMAD (AL MASSIRA MC , MA) observed 0830 UTC 18 August 2019
Temperature: 25.0°C (77°F)
Dewpoint: 15.0°C (59°F) [RH = 54%]
Pressure (altimeter): 29.85 inches Hg (1011.0 mb)
Winds: from the ENE (70 degrees) at 5 MPH (4 knots; 2.1 m/s)
Visibility: 6 or more miles (10+ km)
Ceiling: ceiling and visibility are OK
Clouds: unknown
Weather: no significant weather observed at this time

METAR text: GMAD 180800Z 07004KT CAVOK 22/15 Q1011 NOSIG
Conditions at: GMAD (AL MASSIRA MC , MA) observed 0800 UTC 18 August 2019
Temperature: 22.0°C (72°F)
Dewpoint: 15.0°C (59°F) [RH = 65%]
Pressure (altimeter): 29.85 inches Hg (1011.0 mb)
Winds: from the ENE (70 degrees) at 5 MPH (4 knots; 2.1 m/s)
Visibility: 6 or more miles (10+ km)
Ceiling: ceiling and visibility are OK
Clouds: unknown
Weather: no significant weather observed at this time

METAR text: GMAD 180730Z 03003KT CAVOK 20/15 Q1011 NOSIG
Conditions at: GMAD (AL MASSIRA MC , MA) observed 0730 UTC 18 August 2019
Temperature: 20.0°C (68°F)
Dewpoint: 15.0°C (59°F) [RH = 73%]
Pressure (altimeter): 29.85 inches Hg (1011.0 mb)
Winds: from the NNE (30 degrees) at 3 MPH (3 knots; 1.5 m/s)
Visibility: 6 or more miles (10+ km)
Ceiling: ceiling and visibility are OK
Clouds: unknown
Weather: no significant weather observed at this time

METAR text: GMAD 180700Z 01003KT CAVOK 19/15 Q1011 NOSIG
Conditions at: GMAD (AL MASSIRA MC , MA) observed 0700 UTC 18 August 2019
Temperature: 19.0°C (66°F)
Dewpoint: 15.0°C (59°F) [RH = 78%]
Pressure (altimeter): 29.85 inches Hg (1011.0 mb)
Winds: from the N (10 degrees) at 3 MPH (3 knots; 1.5 m/s)
Visibility: 6 or more miles (10+ km)
Ceiling: ceiling and visibility are OK
Clouds: unknown
Weather: no significant weather observed at this time

METAR text: GMAD 180630Z 08003KT CAVOK 19/15 Q1011 NOSIG
Conditions at: GMAD (AL MASSIRA MC , MA) observed 0630 UTC 18 August 2019
Temperature: 19.0°C (66°F)
Dewpoint: 15.0°C (59°F) [RH = 78%]
Pressure (altimeter): 29.85 inches Hg (1011.0 mb)
Winds: from the E (80 degrees) at 3 MPH (3 knots; 1.5 m/s)
Visibility: 6 or more miles (10+ km)
Ceiling: ceiling and visibility are OK
Clouds: unknown
Weather: no significant weather observed at this time

METAR text: GMAD 180600Z 10004KT CAVOK 18/15 Q1011 NOSIG
Conditions at: GMAD (AL MASSIRA MC , MA) observed 0600 UTC 18 August 2019
Temperature: 18.0°C (64°F)
Dewpoint: 15.0°C (59°F) [RH = 83%]
Pressure (altimeter): 29.85 inches Hg (1011.0 mb)
Winds: from the E (100 degrees) at 5 MPH (4 knots; 2.1 m/s)
Visibility: 6 or more miles (10+ km)
Ceiling: ceiling and visibility are OK
Clouds: unknown
Weather: no significant weather observed at this time

METAR text: GMAD 180530Z 07006KT CAVOK 19/15 Q1010 NOSIG
Conditions at: GMAD (AL MASSIRA MC , MA) observed 0530 UTC 18 August 2019
Temperature: 19.0°C (66°F)
Dewpoint: 15.0°C (59°F) [RH = 78%]
Pressure (altimeter): 29.82 inches Hg (1010.0 mb)
Winds: from the ENE (70 degrees) at 7 MPH (6 knots; 3.1 m/s)
Visibility: 6 or more miles (10+ km)
Ceiling: ceiling and visibility are OK
Clouds: unknown
Weather: no significant weather observed at this time

METAR text: GMAD 180500Z 10005KT CAVOK 18/15 Q1010 NOSIG
Conditions at: GMAD (AL MASSIRA MC , MA) observed 0500 UTC 18 August 2019
Temperature: 18.0°C (64°F)
Dewpoint: 15.0°C (59°F) [RH = 83%]
Pressure (altimeter): 29.82 inches Hg (1010.0 mb)
Winds: from the E (100 degrees) at 6 MPH (5 knots; 2.6 m/s)
Visibility: 6 or more miles (10+ km)
Ceiling: ceiling and visibility are OK
Clouds: unknown
Weather: no significant weather observed at this time

METAR text: GMAD 180430Z 10006KT CAVOK 18/15 Q1010 NOSIG
Conditions at: GMAD (AL MASSIRA MC , MA) observed 0430 UTC 18 August 2019
Temperature: 18.0°C (64°F)
Dewpoint: 15.0°C (59°F) [RH = 83%]
Pressure (altimeter): 29.82 inches Hg (1010.0 mb)
Winds: from the E (100 degrees) at 7 MPH (6 knots; 3.1 m/s)
Visibility: 6 or more miles (10+ km)
Ceiling: ceiling and visibility are OK
Clouds: unknown
Weather: no significant weather observed at this time

METAR text: GMAD 180400Z 09005KT CAVOK 18/15 Q1010 NOSIG
Conditions at: GMAD (AL MASSIRA MC , MA) observed 0400 UTC 18 August 2019
Temperature: 18.0°C (64°F)
Dewpoint: 15.0°C (59°F) [RH = 83%]
Pressure (altimeter): 29.82 inches Hg (1010.0 mb)
Winds: from the E (90 degrees) at 6 MPH (5 knots; 2.6 m/s)
Visibility: 6 or more miles (10+ km)
Ceiling: ceiling and visibility are OK
Clouds: unknown
Weather: no significant weather observed at this time

METAR text: GMAD 180330Z 07004KT CAVOK 18/15 Q1010 NOSIG
Conditions at: GMAD (AL MASSIRA MC , MA) observed 0330 UTC 18 August 2019
Temperature: 18.0°C (64°F)
Dewpoint: 15.0°C (59°F) [RH = 83%]
Pressure (altimeter): 29.82 inches Hg (1010.0 mb)
Winds: from the ENE (70 degrees) at 5 MPH (4 knots; 2.1 m/s)
Visibility: 6 or more miles (10+ km)
Ceiling: ceiling and visibility are OK
Clouds: unknown
Weather: no significant weather observed at this time

METAR text: GMAD 180300Z 05003KT CAVOK 18/15 Q1010 NOSIG
Conditions at: GMAD (AL MASSIRA MC , MA) observed 0300 UTC 18 August 2019
Temperature: 18.0°C (64°F)
Dewpoint: 15.0°C (59°F) [RH = 83%]
Pressure (altimeter): 29.82 inches Hg (1010.0 mb)
Winds: from the NE (50 degrees) at 3 MPH (3 knots; 1.5 m/s)
Visibility: 6 or more miles (10+ km)
Ceiling: ceiling and visibility are OK
Clouds: unknown
Weather: no significant weather observed at this time

METAR text: GMAD 180230Z 10003KT CAVOK 19/16 Q1010 NOSIG
Conditions at: GMAD (AL MASSIRA MC , MA) observed 0230 UTC 18 August 2019
Temperature: 19.0°C (66°F)
Dewpoint: 16.0°C (61°F) [RH = 83%]
Pressure (altimeter): 29.82 inches Hg (1010.0 mb)
Winds: from the E (100 degrees) at 3 MPH (3 knots; 1.5 m/s)
Visibility: 6 or more miles (10+ km)
Ceiling: ceiling and visibility are OK
Clouds: unknown
Weather: no significant weather observed at this time

METAR text: GMAD 180200Z 08004KT 020V120 CAVOK 19/15 Q1010 NOSIG
Conditions at: GMAD (AL MASSIRA MC , MA) observed 0200 UTC 18 August 2019
Temperature: 19.0°C (66°F)
Dewpoint: 15.0°C (59°F) [RH = 78%]
Pressure (altimeter): 29.82 inches Hg (1010.0 mb)
Winds: from the E (80 degrees) at 5 MPH (4 knots; 2.1 m/s)
Visibility: 6 or more miles (10+ km)
Ceiling: ceiling and visibility are OK
Clouds: unknown
Weather: no significant weather observed at this time

METAR text: GMAD 180130Z 00000KT CAVOK 20/17 Q1010 NOSIG
Conditions at: GMAD (AL MASSIRA MC , MA) observed 0130 UTC 18 August 2019
Temperature: 20.0°C (68°F)
Dewpoint: 17.0°C (63°F) [RH = 83%]
Pressure (altimeter): 29.82 inches Hg (1010.0 mb)
Winds: calm
Visibility: 6 or more miles (10+ km)
Ceiling: ceiling and visibility are OK
Clouds: unknown
Weather: no significant weather observed at this time

METAR text: GMAD 180100Z 00000KT 160V280 CAVOK 20/17 Q1010 NOSIG
Conditions at: GMAD (AL MASSIRA MC , MA) observed 0100 UTC 18 August 2019
Temperature: 20.0°C (68°F)
Dewpoint: 17.0°C (63°F) [RH = 83%]
Pressure (altimeter): 29.82 inches Hg (1010.0 mb)
Winds: calm
Visibility: 6 or more miles (10+ km)
Ceiling: ceiling and visibility are OK
Clouds: unknown
Weather: no significant weather observed at this time

METAR text: GMAD 180030Z 28006KT CAVOK 20/16 Q1010 NOSIG
Conditions at: GMAD (AL MASSIRA MC , MA) observed 0030 UTC 18 August 2019
Temperature: 20.0°C (68°F)
Dewpoint: 16.0°C (61°F) [RH = 78%]
Pressure (altimeter): 29.82 inches Hg (1010.0 mb)
Winds: from the W (280 degrees) at 7 MPH (6 knots; 3.1 m/s)
Visibility: 6 or more miles (10+ km)
Ceiling: ceiling and visibility are OK
Clouds: unknown
Weather: no significant weather observed at this time

METAR text: GMAD 180000Z 21003KT 200V260 CAVOK 21/17 Q1011 NOSIG
Conditions at: GMAD (AL MASSIRA MC , MA) observed 0000 UTC 18 August 2019
Temperature: 21.0°C (70°F)
Dewpoint: 17.0°C (63°F) [RH = 78%]
Pressure (altimeter): 29.85 inches Hg (1011.0 mb)
Winds: from the SSW (210 degrees) at 3 MPH (3 knots; 1.5 m/s)
Visibility: 6 or more miles (10+ km)
Ceiling: ceiling and visibility are OK
Clouds: unknown
Weather: no significant weather observed at this time

METAR text: GMAD 172330Z 27003KT CAVOK 21/17 Q1010 NOSIG
Conditions at: GMAD (AL MASSIRA MC , MA) observed 2330 UTC 17 August 2019
Temperature: 21.0°C (70°F)
Dewpoint: 17.0°C (63°F) [RH = 78%]
Pressure (altimeter): 29.82 inches Hg (1010.0 mb)
Winds: from the W (270 degrees) at 3 MPH (3 knots; 1.5 m/s)
Visibility: 6 or more miles (10+ km)
Ceiling: ceiling and visibility are OK
Clouds: unknown
Weather: no significant weather observed at this time

METAR text: GMAD 172300Z 26004KT 220V280 CAVOK 22/17 Q1010 NOSIG
Conditions at: GMAD (AL MASSIRA MC , MA) observed 2300 UTC 17 August 2019
Temperature: 22.0°C (72°F)
Dewpoint: 17.0°C (63°F) [RH = 73%]
Pressure (altimeter): 29.82 inches Hg (1010.0 mb)
Winds: from the W (260 degrees) at 5 MPH (4 knots; 2.1 m/s)
Visibility: 6 or more miles (10+ km)
Ceiling: ceiling and visibility are OK
Clouds: unknown
Weather: no significant weather observed at this time

METAR text: GMAD 172230Z 25006KT CAVOK 23/17 Q1010 NOSIG
Conditions at: GMAD (AL MASSIRA MC , MA) observed 2230 UTC 17 August 2019
Temperature: 23.0°C (73°F)
Dewpoint: 17.0°C (63°F) [RH = 69%]
Pressure (altimeter): 29.82 inches Hg (1010.0 mb)
Winds: from the WSW (250 degrees) at 7 MPH (6 knots; 3.1 m/s)
Visibility: 6 or more miles (10+ km)
Ceiling: ceiling and visibility are OK
Clouds: unknown
Weather: no significant weather observed at this time

METAR text: GMAD 172200Z 25008KT CAVOK 23/16 Q1010 NOSIG
Conditions at: GMAD (AL MASSIRA MC , MA) observed 2200 UTC 17 August 2019
Temperature: 23.0°C (73°F)
Dewpoint: 16.0°C (61°F) [RH = 65%]
Pressure (altimeter): 29.82 inches Hg (1010.0 mb)
Winds: from the WSW (250 degrees) at 9 MPH (8 knots; 4.1 m/s)
Visibility: 6 or more miles (10+ km)
Ceiling: ceiling and visibility are OK
Clouds: unknown
Weather: no significant weather observed at this time

METAR text: GMAD 172130Z 27010KT CAVOK 25/16 Q1010 NOSIG
Conditions at: GMAD (AL MASSIRA MC , MA) observed 2130 UTC 17 August 2019
Temperature: 25.0°C (77°F)
Dewpoint: 16.0°C (61°F) [RH = 57%]
Pressure (altimeter): 29.82 inches Hg (1010.0 mb)
Winds: from the W (270 degrees) at 12 MPH (10 knots; 5.1 m/s)
Visibility: 6 or more miles (10+ km)
Ceiling: ceiling and visibility are OK
Clouds: unknown
Weather: no significant weather observed at this time

METAR text: GMAD 172100Z 23008KT CAVOK 26/15 Q1010 NOSIG
Conditions at: GMAD (AL MASSIRA MC , MA) observed 2100 UTC 17 August 2019
Temperature: 26.0°C (79°F)
Dewpoint: 15.0°C (59°F) [RH = 51%]
Pressure (altimeter): 29.82 inches Hg (1010.0 mb)
Winds: from the SW (230 degrees) at 9 MPH (8 knots; 4.1 m/s)
Visibility: 6 or more miles (10+ km)
Ceiling: ceiling and visibility are OK
Clouds: unknown
Weather: no significant weather observed at this time

METAR text: GMAD 172030Z 22009KT CAVOK 27/15 Q1009 NOSIG
Conditions at: GMAD (AL MASSIRA MC , MA) observed 2030 UTC 17 August 2019
Temperature: 27.0°C (81°F)
Dewpoint: 15.0°C (59°F) [RH = 48%]
Pressure (altimeter): 29.79 inches Hg (1009.0 mb)
Winds: from the SW (220 degrees) at 10 MPH (9 knots; 4.6 m/s)
Visibility: 6 or more miles (10+ km)
Ceiling: ceiling and visibility are OK
Clouds: unknown
Weather: no significant weather observed at this time

METAR text: GMAD 172000Z 21011KT CAVOK 28/15 Q1009 NOSIG
Conditions at: GMAD (AL MASSIRA MC , MA) observed 2000 UTC 17 August 2019
Temperature: 28.0°C (82°F)
Dewpoint: 15.0°C (59°F) [RH = 45%]
Pressure (altimeter): 29.79 inches Hg (1009.0 mb)
Winds: from the SSW (210 degrees) at 13 MPH (11 knots; 5.7 m/s)
Visibility: 6 or more miles (10+ km)
Ceiling: ceiling and visibility are OK
Clouds: unknown
Weather: no significant weather observed at this time

METAR text: GMAD 171930Z 21010KT CAVOK 29/15 Q1008 NOSIG
Conditions at: GMAD (AL MASSIRA MC , MA) observed 1930 UTC 17 August 2019
Temperature: 29.0°C (84°F)
Dewpoint: 15.0°C (59°F) [RH = 43%]
Pressure (altimeter): 29.76 inches Hg (1008.0 mb)
Winds: from the SSW (210 degrees) at 12 MPH (10 knots; 5.1 m/s)
Visibility: 6 or more miles (10+ km)
Ceiling: ceiling and visibility are OK
Clouds: unknown
Weather: no significant weather observed at this time

METAR text: GMAD 171900Z 20008KT CAVOK 31/15 Q1008 NOSIG
Conditions at: GMAD (AL MASSIRA MC , MA) observed 1900 UTC 17 August 2019
Temperature: 31.0°C (88°F)
Dewpoint: 15.0°C (59°F) [RH = 38%]
Pressure (altimeter): 29.76 inches Hg (1008.0 mb)
Winds: from the SSW (200 degrees) at 9 MPH (8 knots; 4.1 m/s)
Visibility: 6 or more miles (10+ km)
Ceiling: ceiling and visibility are OK
Clouds: unknown
Weather: no significant weather observed at this time

METAR text: GMAD 171830Z 21009KT CAVOK 33/15 Q1007 NOSIG
Conditions at: GMAD (AL MASSIRA MC , MA) observed 1830 UTC 17 August 2019
Temperature: 33.0°C (91°F)
Dewpoint: 15.0°C (59°F) [RH = 34%]
Pressure (altimeter): 29.73 inches Hg (1007.0 mb)
Winds: from the SSW (210 degrees) at 10 MPH (9 knots; 4.6 m/s)
Visibility: 6 or more miles (10+ km)
Ceiling: ceiling and visibility are OK
Clouds: unknown
Weather: no significant weather observed at this time

METAR text: GMAD 171800Z 24011KT CAVOK 33/14 Q1007 NOSIG
Conditions at: GMAD (AL MASSIRA MC , MA) observed 1800 UTC 17 August 2019
Temperature: 33.0°C (91°F)
Dewpoint: 14.0°C (57°F) [RH = 32%]
Pressure (altimeter): 29.73 inches Hg (1007.0 mb)
Winds: from the WSW (240 degrees) at 13 MPH (11 knots; 5.7 m/s)
Visibility: 6 or more miles (10+ km)
Ceiling: ceiling and visibility are OK
Clouds: unknown
Weather: no significant weather observed at this time

METAR text: GMAD 171730Z 24011KT CAVOK 33/16 Q1007 NOSIG
Conditions at: GMAD (AL MASSIRA MC , MA) observed 1730 UTC 17 August 2019
Temperature: 33.0°C (91°F)
Dewpoint: 16.0°C (61°F) [RH = 36%]
Pressure (altimeter): 29.73 inches Hg (1007.0 mb)
Winds: from the WSW (240 degrees) at 13 MPH (11 knots; 5.7 m/s)
Visibility: 6 or more miles (10+ km)
Ceiling: ceiling and visibility are OK
Clouds: unknown
Weather: no significant weather observed at this time

METAR text: GMAD 171700Z 25012KT CAVOK 32/16 Q1007 NOSIG
Conditions at: GMAD (AL MASSIRA MC , MA) observed 1700 UTC 17 August 2019
Temperature: 32.0°C (90°F)
Dewpoint: 16.0°C (61°F) [RH = 38%]
Pressure (altimeter): 29.73 inches Hg (1007.0 mb)
Winds: from the WSW (250 degrees) at 14 MPH (12 knots; 6.2 m/s)
Visibility: 6 or more miles (10+ km)
Ceiling: ceiling and visibility are OK
Clouds: unknown
Weather: no significant weather observed at this time

METAR text: GMAD 171630Z 25012KT CAVOK 33/15 Q1007 NOSIG
Conditions at: GMAD (AL MASSIRA MC , MA) observed 1630 UTC 17 August 2019
Temperature: 33.0°C (91°F)
Dewpoint: 15.0°C (59°F) [RH = 34%]
Pressure (altimeter): 29.73 inches Hg (1007.0 mb)
Winds: from the WSW (250 degrees) at 14 MPH (12 knots; 6.2 m/s)
Visibility: 6 or more miles (10+ km)
Ceiling: ceiling and visibility are OK
Clouds: unknown
Weather: no significant weather observed at this time

METAR text: GMAD 171600Z 24013KT CAVOK 34/15 Q1007 NOSIG
Conditions at: GMAD (AL MASSIRA MC , MA) observed 1600 UTC 17 August 2019
Temperature: 34.0°C (93°F)
Dewpoint: 15.0°C (59°F) [RH = 32%]
Pressure (altimeter): 29.73 inches Hg (1007.0 mb)
Winds: from the WSW (240 degrees) at 15 MPH (13 knots; 6.7 m/s)
Visibility: 6 or more miles (10+ km)
Ceiling: ceiling and visibility are OK
Clouds: unknown
Weather: no significant weather observed at this time

METAR text: GMAD 171530Z 26013KT CAVOK 37/13 Q1007 NOSIG
Conditions at: GMAD (AL MASSIRA MC , MA) observed 1530 UTC 17 August 2019
Temperature: 37.0°C (99°F)
Dewpoint: 13.0°C (55°F) [RH = 24%]
Pressure (altimeter): 29.73 inches Hg (1007.0 mb)
Winds: from the W (260 degrees) at 15 MPH (13 knots; 6.7 m/s)
Visibility: 6 or more miles (10+ km)
Ceiling: ceiling and visibility are OK
Clouds: unknown
Weather: no significant weather observed at this time

METAR text: GMAD 171500Z 26012KT CAVOK 36/15 Q1008 NOSIG
Conditions at: GMAD (AL MASSIRA MC , MA) observed 1500 UTC 17 August 2019
Temperature: 36.0°C (97°F)
Dewpoint: 15.0°C (59°F) [RH = 29%]
Pressure (altimeter): 29.76 inches Hg (1008.0 mb)
Winds: from the W (260 degrees) at 14 MPH (12 knots; 6.2 m/s)
Visibility: 6 or more miles (10+ km)
Ceiling: ceiling and visibility are OK
Clouds: unknown
Weather: no significant weather observed at this time

METAR text: GMAD 171430Z 25013KT CAVOK 36/14 Q1008 NOSIG
Conditions at: GMAD (AL MASSIRA MC , MA) observed 1430 UTC 17 August 2019
Temperature: 36.0°C (97°F)
Dewpoint: 14.0°C (57°F) [RH = 27%]
Pressure (altimeter): 29.76 inches Hg (1008.0 mb)
Winds: from the WSW (250 degrees) at 15 MPH (13 knots; 6.7 m/s)
Visibility: 6 or more miles (10+ km)
Ceiling: ceiling and visibility are OK
Clouds: unknown
Weather: no significant weather observed at this time

METAR text: GMAD 171400Z 27014KT CAVOK 37/15 Q1009 NOSIG
Conditions at: GMAD (AL MASSIRA MC , MA) observed 1400 UTC 17 August 2019
Temperature: 37.0°C (99°F)
Dewpoint: 15.0°C (59°F) [RH = 27%]
Pressure (altimeter): 29.79 inches Hg (1009.0 mb)
Winds: from the W (270 degrees) at 16 MPH (14 knots; 7.2 m/s)
Visibility: 6 or more miles (10+ km)
Ceiling: ceiling and visibility are OK
Clouds: unknown
Weather: no significant weather observed at this time

METAR text: GMAD 171330Z 29011KT 250V310 CAVOK 38/14 Q1009 NOSIG
Conditions at: GMAD (AL MASSIRA MC , MA) observed 1330 UTC 17 August 2019
Temperature: 38.0°C (100°F)
Dewpoint: 14.0°C (57°F) [RH = 24%]
Pressure (altimeter): 29.79 inches Hg (1009.0 mb)
Winds: from the WNW (290 degrees) at 13 MPH (11 knots; 5.7 m/s)
Visibility: 6 or more miles (10+ km)
Ceiling: ceiling and visibility are OK
Clouds: unknown
Weather: no significant weather observed at this time

METAR text: GMAD 171300Z 25010KT CAVOK 37/14 Q1009 NOSIG
Conditions at: GMAD (AL MASSIRA MC , MA) observed 1300 UTC 17 August 2019
Temperature: 37.0°C (99°F)
Dewpoint: 14.0°C (57°F) [RH = 25%]
Pressure (altimeter): 29.79 inches Hg (1009.0 mb)
Winds: from the WSW (250 degrees) at 12 MPH (10 knots; 5.1 m/s)
Visibility: 6 or more miles (10+ km)
Ceiling: ceiling and visibility are OK
Clouds: unknown
Weather: no significant weather observed at this time

METAR text: GMAD 171230Z 26010KT CAVOK 35/16 Q1009 NOSIG
Conditions at: GMAD (AL MASSIRA MC , MA) observed 1230 UTC 17 August 2019
Temperature: 35.0°C (95°F)
Dewpoint: 16.0°C (61°F) [RH = 32%]
Pressure (altimeter): 29.79 inches Hg (1009.0 mb)
Winds: from the W (260 degrees) at 12 MPH (10 knots; 5.1 m/s)
Visibility: 6 or more miles (10+ km)
Ceiling: ceiling and visibility are OK
Clouds: unknown
Weather: no significant weather observed at this time

METAR text: GMAD 171200Z 27011KT CAVOK 34/17 Q1009 NOSIG
Conditions at: GMAD (AL MASSIRA MC , MA) observed 1200 UTC 17 August 2019
Temperature: 34.0°C (93°F)
Dewpoint: 17.0°C (63°F) [RH = 36%]
Pressure (altimeter): 29.79 inches Hg (1009.0 mb)
Winds: from the W (270 degrees) at 13 MPH (11 knots; 5.7 m/s)
Visibility: 6 or more miles (10+ km)
Ceiling: ceiling and visibility are OK
Clouds: unknown
Weather: no significant weather observed at this time

Forecast for: GMAD (AL MASSIRA MC , MA)
Text: TAF GMAD 182300Z 1900/2006 12004KT CAVOK
Forecast period: 0000 UTC 19 August 2019 to 0600 UTC 20 August 2019
Forecast type: FROM: standard forecast or significant change
Winds: from the ESE (120 degrees) at 5 MPH (4 knots; 2.1 m/s)
Visibility: 6 or more miles 10+ km)
Ceiling: unknown
Clouds: missing
Weather: NSW  (no significant weather)